createdAt,value
2018-12-07T00:02:18.758Z,7.70
2018-12-07T00:05:16.623Z,7.80
2018-12-07T00:07:51.479Z,6.30
2018-12-07T00:10:26.918Z,7.27
2018-12-07T00:12:54.507Z,6.70
2018-12-07T00:15:22.410Z,5.70
2018-12-07T00:17:49.989Z,6.80
2018-12-07T00:20:25.120Z,7.47
2018-12-07T00:22:59.842Z,6.30
2018-12-07T00:25:35.071Z,11.37
2018-12-07T00:28:09.897Z,10.10
2018-12-07T00:30:44.951Z,6.57
2018-12-07T00:33:19.795Z,10.20
2018-12-07T00:35:55.197Z,7.87
2018-12-07T00:38:30.061Z,8.30
2018-12-07T00:40:57.806Z,8.57
2018-12-07T00:43:25.538Z,10.60
2018-12-07T00:45:54.799Z,9.27
2018-12-07T00:48:30.306Z,9.03
2018-12-07T00:51:02.040Z,7.73
2018-12-07T00:53:29.614Z,9.53
2018-12-07T00:55:57.387Z,8.47
2018-12-07T00:58:24.956Z,8.10
2018-12-07T01:00:52.576Z,8.27
2018-12-07T01:03:20.166Z,5.87
2018-12-07T01:05:47.886Z,9.97
2018-12-07T01:08:15.678Z,7.30
2018-12-07T01:10:43.311Z,7.77
2018-12-07T01:13:10.870Z,8.67
2018-12-07T01:15:46.645Z,8.40
2018-12-07T01:18:14.280Z,6.67
2018-12-07T01:20:41.910Z,8.10
2018-12-07T01:23:17.494Z,6.73
2018-12-07T01:25:59.916Z,8.67
2018-12-07T01:28:27.690Z,4.87
2018-12-07T01:30:55.363Z,6.40
2018-12-07T01:33:22.853Z,4.53
2018-12-07T01:35:50.414Z,6.73
2018-12-07T01:38:17.916Z,7.13
2018-12-07T01:40:45.454Z,5.20
2018-12-07T01:43:13.009Z,4.93
2018-12-07T01:45:40.633Z,5.90
2018-12-07T01:48:15.982Z,9.27
2018-12-07T01:50:51.238Z,5.67
2018-12-07T01:53:18.960Z,7.40
2018-12-07T01:55:46.555Z,3.73
2018-12-07T01:58:21.945Z,5.40
2018-12-07T02:00:49.673Z,6.57
2018-12-07T02:03:25.290Z,8.23
2018-12-07T02:05:53.007Z,7.87
2018-12-07T02:08:27.902Z,8.30
2018-12-07T02:10:55.430Z,8.23
2018-12-07T02:13:30.746Z,8.47
2018-12-07T02:16:05.973Z,7.63
2018-12-07T02:18:33.514Z,4.83
2018-12-07T02:21:01.229Z,3.87
2018-12-07T02:23:28.840Z,5.53
2018-12-07T02:25:56.630Z,6.63
2018-12-07T02:28:24.307Z,4.20
2018-12-07T02:30:51.867Z,9.07
2018-12-07T02:33:19.558Z,4.47
2018-12-07T02:35:47.122Z,6.30
2018-12-07T02:38:14.747Z,5.70
2018-12-07T02:40:42.331Z,6.30
2018-12-07T02:43:09.894Z,4.90
2018-12-07T02:45:37.605Z,7.67
2018-12-07T02:48:05.377Z,6.07
2018-12-07T02:50:33.227Z,4.97
2018-12-07T02:53:00.879Z,5.83
2018-12-07T02:55:28.522Z,4.70
2018-12-07T02:57:56.069Z,4.90
2018-12-07T03:00:23.658Z,6.50
2018-12-07T03:02:51.231Z,5.37
2018-12-07T03:05:19.206Z,3.50
2018-12-07T03:07:50.150Z,2.87
2018-12-07T03:10:17.707Z,3.60
2018-12-07T03:16:19.725Z,4.60
2018-12-07T03:18:47.529Z,3.63
2018-12-07T03:21:28.534Z,3.00
2018-12-07T03:23:56.101Z,1.97
2018-12-07T03:26:24.035Z,3.13
2018-12-07T03:28:51.967Z,3.47
2018-12-07T03:32:08.027Z,3.13
2018-12-07T03:34:35.622Z,3.70
2018-12-07T03:37:03.198Z,2.47
2018-12-07T03:39:30.936Z,1.70
2018-12-07T03:41:58.592Z,3.20
2018-12-07T03:44:26.362Z,1.70
2018-12-07T03:46:54.019Z,3.67
2018-12-07T03:49:21.581Z,2.57
2018-12-07T03:51:49.127Z,3.87
2018-12-07T03:54:24.661Z,3.17
2018-12-07T03:56:52.170Z,2.07
2018-12-07T03:59:33.374Z,2.43
2018-12-07T04:02:01.042Z,3.87
2018-12-07T04:04:28.627Z,4.63
2018-12-07T04:07:23.013Z,6.07
2018-12-07T04:09:50.704Z,7.10
2018-12-07T04:12:18.632Z,9.10
2018-12-07T04:14:46.414Z,5.67
2018-12-07T04:17:14.102Z,6.07
2018-12-07T04:19:41.752Z,6.33
2018-12-07T04:22:09.285Z,5.63
2018-12-07T04:24:36.775Z,5.17
2018-12-07T04:27:04.628Z,5.10
2018-12-07T04:29:32.505Z,4.77
2018-12-07T04:32:00.174Z,3.43
2018-12-07T04:34:27.735Z,6.03
2018-12-07T04:36:55.306Z,5.63
2018-12-07T04:39:22.936Z,4.40
2018-12-07T04:41:50.482Z,6.03
2018-12-07T04:44:18.067Z,5.27
2018-12-07T04:46:45.917Z,5.03
2018-12-07T04:49:13.680Z,3.87
2018-12-07T04:51:41.419Z,5.03
2018-12-07T04:54:08.971Z,4.37
2018-12-07T04:56:36.544Z,4.37
2018-12-07T04:59:04.125Z,5.50
2018-12-07T05:01:39.339Z,6.27
2018-12-07T05:04:14.605Z,4.93
2018-12-07T05:06:42.119Z,5.13
2018-12-07T05:09:09.851Z,4.60
2018-12-07T05:12:07.725Z,4.13
2018-12-07T05:14:35.502Z,5.47
2018-12-07T05:17:03.172Z,5.93
2018-12-07T05:19:31.019Z,6.90
2018-12-07T05:21:58.568Z,4.60
2018-12-07T05:24:26.143Z,6.23
2018-12-07T05:27:01.781Z,5.60
2018-12-07T05:29:39.525Z,5.10
2018-12-07T05:32:14.802Z,6.07
2018-12-07T05:34:46.327Z,6.87
2018-12-07T05:37:14.077Z,4.97
2018-12-07T05:39:50.087Z,6.67
2018-12-07T05:42:17.616Z,6.20
2018-12-07T05:44:49.091Z,7.03
2018-12-07T05:47:16.764Z,4.43
2018-12-07T05:49:44.473Z,4.73
2018-12-07T05:52:12.275Z,5.33
2018-12-07T05:54:39.918Z,4.50
2018-12-07T05:57:07.450Z,4.10
2018-12-07T05:59:35.058Z,4.60
2018-12-07T06:02:02.617Z,4.10
2018-12-07T06:04:30.208Z,6.33
2018-12-07T06:06:57.954Z,4.93
2018-12-07T06:09:25.820Z,4.87
2018-12-07T06:11:55.085Z,5.37
2018-12-07T06:14:22.860Z,5.00
2018-12-07T06:16:50.457Z,5.37
2018-12-07T06:19:18.296Z,8.60
2018-12-07T06:21:45.991Z,7.30
2018-12-07T06:24:13.862Z,6.43
2018-12-07T06:26:41.418Z,6.73
2018-12-07T07:54:40.722Z,7.53
2018-12-07T07:57:08.245Z,9.13
2018-12-07T07:59:35.793Z,5.93
2018-12-07T08:02:03.784Z,6.97
2018-12-07T08:04:31.502Z,7.03
2018-12-07T08:06:59.139Z,8.03
2018-12-07T08:09:35.386Z,6.43
2018-12-07T08:12:03.172Z,6.90
2018-12-07T08:14:30.722Z,6.80
2018-12-07T08:16:58.278Z,8.60
2018-12-07T08:19:25.826Z,7.33
2018-12-07T08:21:53.412Z,7.90
2018-12-07T08:24:20.996Z,8.47
2018-12-07T08:26:48.816Z,8.83
2018-12-07T08:29:16.592Z,8.90
2018-12-07T08:31:44.190Z,9.13
2018-12-07T08:34:11.863Z,9.83
2018-12-07T08:36:39.471Z,9.30
2018-12-07T08:39:09.577Z,10.93
2018-12-07T08:41:37.319Z,11.07
2018-12-07T08:44:05.222Z,10.63
2018-12-07T08:46:32.973Z,10.90
2018-12-07T08:49:00.609Z,12.10
2018-12-07T08:51:28.209Z,10.73
2018-12-07T08:53:56.069Z,12.47
2018-12-07T08:56:23.748Z,9.70
2018-12-07T08:58:51.303Z,10.07
2018-12-07T09:01:19.139Z,13.93
2018-12-07T09:03:46.951Z,10.30
2018-12-07T09:06:14.758Z,10.30
2018-12-07T09:08:42.382Z,10.40
2018-12-07T09:11:09.956Z,10.80
2018-12-07T09:13:37.478Z,8.90
2018-12-07T09:16:05.010Z,8.37
2018-12-07T09:18:32.566Z,9.27
2018-12-07T09:21:00.388Z,8.23
2018-12-07T09:23:27.995Z,8.90
2018-12-07T09:25:55.675Z,11.00
2018-12-07T09:28:23.297Z,9.70
2018-12-07T09:30:50.882Z,10.03
2018-12-07T09:33:18.443Z,8.10
2018-12-07T09:35:45.999Z,8.37
2018-12-07T09:38:13.582Z,10.13
2018-12-07T09:40:41.379Z,7.87
2018-12-07T09:43:09.210Z,7.60
2018-12-07T09:45:36.992Z,9.63
2018-12-07T09:48:04.579Z,8.60
2018-12-07T09:50:32.147Z,7.10
2018-12-07T09:52:59.740Z,6.87
2018-12-07T09:55:27.303Z,7.33
2018-12-07T09:57:54.907Z,6.30
2018-12-07T10:00:22.742Z,5.70
2018-12-07T10:02:50.542Z,7.27
2018-12-07T10:05:18.158Z,7.60
2018-12-07T10:07:45.762Z,7.47
2018-12-07T10:10:13.309Z,7.50
2018-12-07T10:12:40.879Z,6.03
2018-12-07T10:15:08.442Z,5.80
2018-12-07T10:17:35.993Z,5.93
2018-12-07T10:20:03.981Z,5.00
2018-12-07T10:22:31.755Z,5.60
2018-12-07T10:24:59.338Z,7.13
2018-12-07T10:27:26.893Z,6.37
2018-12-07T10:29:54.431Z,8.37
2018-12-07T10:32:21.981Z,6.87
2018-12-07T10:34:49.557Z,8.43
2018-12-07T10:37:17.369Z,6.97
2018-12-07T10:39:45.007Z,7.27
2018-12-07T10:42:12.911Z,9.10
2018-12-07T10:44:40.621Z,7.43
2018-12-07T10:47:08.135Z,7.20
2018-12-07T10:49:35.698Z,7.07
2018-12-07T10:52:03.258Z,8.07
2018-12-07T10:54:30.806Z,7.73
2018-12-07T10:56:58.372Z,6.87
2018-12-07T10:59:26.240Z,8.30
2018-12-07T11:01:59.730Z,6.00
2018-12-07T11:04:33.015Z,11.07
2018-12-07T11:07:06.147Z,6.70
2018-12-07T11:09:39.382Z,8.53
2018-12-07T11:12:12.705Z,7.67
2018-12-07T11:14:45.841Z,8.30
2018-12-07T11:17:19.381Z,8.33
2018-12-07T11:19:52.565Z,8.83
2018-12-07T11:22:25.786Z,9.07
2018-12-07T11:24:59.112Z,8.33
2018-12-07T11:27:32.452Z,7.40
2018-12-07T11:30:05.877Z,6.77
2018-12-07T11:32:38.261Z,6.60
2018-12-07T11:35:11.551Z,7.13
2018-12-07T11:37:39.090Z,5.97
2018-12-07T11:40:07.439Z,6.27
2018-12-07T11:42:35.015Z,6.33
2018-12-07T11:45:02.946Z,6.60
2018-12-07T11:47:30.681Z,5.43
2018-12-07T11:49:58.431Z,4.30
2018-12-07T11:52:26.198Z,4.80
2018-12-07T11:54:54.630Z,5.13
2018-12-07T11:57:22.303Z,3.80
2018-12-07T11:59:49.955Z,5.10
2018-12-07T12:02:17.491Z,6.27
2018-12-07T12:04:45.304Z,5.40
2018-12-07T12:07:13.113Z,6.10
2018-12-07T12:09:40.834Z,5.57
2018-12-07T12:12:08.598Z,6.23
2018-12-07T12:14:36.167Z,6.83
2018-12-07T12:17:03.791Z,6.10
2018-12-07T12:19:31.386Z,4.83
2018-12-07T12:21:58.916Z,6.47
2018-12-07T12:24:26.506Z,6.17
2018-12-07T12:26:54.082Z,5.10
2018-12-07T12:29:21.674Z,5.90
2018-12-07T12:31:49.260Z,3.77
2018-12-07T12:34:16.958Z,6.50
2018-12-07T12:36:44.896Z,3.43
2018-12-07T12:39:12.759Z,4.07
2018-12-07T12:41:46.736Z,2.47
2018-12-07T12:44:10.198Z,3.53
2018-12-07T12:46:37.770Z,4.77
2018-12-07T12:49:05.376Z,3.10
2018-12-07T12:51:33.178Z,5.37
2018-12-07T12:54:00.985Z,3.70
2018-12-07T12:56:28.587Z,2.87
2018-12-07T12:58:56.370Z,3.10
2018-12-07T13:01:23.961Z,4.83
2018-12-07T13:03:51.570Z,3.40
2018-12-07T13:06:19.203Z,4.87
2018-12-07T13:08:46.743Z,4.73
2018-12-07T13:11:14.544Z,6.13
2018-12-07T13:13:42.255Z,3.67
2018-12-07T13:16:09.899Z,8.73
2018-12-07T13:18:37.515Z,4.17
2018-12-07T13:21:05.080Z,5.10
2018-12-07T13:23:32.637Z,3.53
2018-12-07T13:26:00.215Z,4.07
2018-12-07T13:28:27.759Z,4.63
2018-12-07T13:30:55.654Z,2.43
2018-12-07T13:33:23.273Z,6.27
2018-12-07T13:35:51.132Z,4.87
2018-12-07T13:38:18.759Z,5.50
2018-12-07T13:40:46.397Z,4.53
2018-12-07T13:43:14.066Z,5.53
2018-12-07T13:45:41.854Z,37.27
2018-12-07T13:48:09.921Z,3.40
2018-12-07T13:50:41.895Z,2.90
2018-12-07T13:53:10.009Z,3.27
2018-12-07T13:55:37.761Z,5.33
2018-12-07T13:58:06.305Z,3.67
2018-12-07T14:00:34.221Z,2.87
2018-12-07T14:03:02.177Z,4.87
2018-12-07T14:05:32.385Z,5.23
2018-12-07T14:07:59.482Z,4.13
2018-12-07T14:10:27.584Z,4.97
2018-12-07T14:12:55.606Z,3.73
2018-12-07T14:15:23.545Z,3.97
2018-12-07T14:17:51.263Z,4.90
2018-12-07T14:20:18.948Z,6.67
2018-12-07T14:22:46.637Z,7.23
2018-12-07T14:25:14.688Z,5.37
2018-12-07T14:27:42.611Z,5.40
2018-12-07T14:30:11.028Z,4.27
2018-12-07T14:32:38.679Z,5.20
2018-12-07T14:35:06.556Z,6.73
2018-12-07T14:37:34.463Z,4.67
2018-12-07T14:40:02.459Z,4.77
2018-12-07T14:42:30.408Z,4.27
2018-12-07T14:44:58.114Z,3.43
2018-12-07T14:47:26.103Z,4.37
2018-12-07T14:49:55.361Z,4.30
2018-12-07T14:52:23.271Z,8.47
2018-12-07T14:54:51.281Z,8.63
2018-12-07T14:57:19.321Z,10.00
2018-12-07T14:59:47.054Z,13.70
2018-12-07T15:02:14.824Z,7.67
2018-12-07T15:04:42.741Z,9.67
2018-12-07T15:07:10.625Z,13.10
2018-12-07T15:09:38.307Z,13.43
2018-12-07T15:12:06.115Z,15.90
2018-12-07T15:14:34.138Z,13.20
2018-12-07T15:17:02.133Z,13.93
2018-12-07T15:19:30.104Z,16.90
2018-12-07T15:21:57.770Z,17.70
2018-12-07T15:24:25.384Z,13.30
2018-12-07T15:26:53.222Z,12.10
2018-12-07T15:29:20.996Z,15.47
2018-12-07T15:31:48.958Z,13.70
2018-12-07T15:34:16.870Z,11.90
2018-12-07T15:36:44.717Z,9.60
2018-12-07T15:39:12.630Z,7.43
2018-12-07T15:41:40.482Z,11.03
2018-12-07T15:44:08.260Z,16.53
2018-12-07T15:46:35.985Z,14.77
2018-12-07T15:49:03.907Z,10.80
2018-12-07T15:51:31.566Z,11.40
2018-12-07T15:53:59.174Z,13.97
2018-12-07T15:56:27.101Z,16.53
2018-12-07T15:58:54.761Z,13.03
2018-12-07T16:01:22.659Z,13.77
2018-12-07T16:03:50.827Z,8.80
2018-12-07T16:06:18.831Z,13.03
2018-12-07T16:08:46.619Z,16.33
2018-12-07T16:11:14.448Z,14.00
2018-12-07T16:13:42.302Z,15.33
2018-12-07T16:16:10.051Z,13.70
2018-12-07T16:18:37.804Z,9.20
2018-12-07T16:21:05.665Z,11.47
2018-12-07T16:23:33.535Z,17.00
2018-12-07T16:26:01.462Z,14.00
2018-12-07T16:28:29.364Z,11.77
2018-12-07T16:30:57.483Z,13.17
2018-12-07T16:33:25.439Z,15.37
2018-12-07T16:35:53.176Z,12.97
2018-12-07T16:38:20.879Z,9.23
2018-12-07T16:40:48.856Z,14.73
2018-12-07T16:43:16.799Z,8.37
2018-12-07T16:45:44.469Z,11.10
2018-12-07T16:48:12.058Z,14.97
2018-12-07T16:50:39.789Z,14.20
2018-12-07T16:53:07.565Z,6.37
2018-12-07T16:55:35.535Z,8.17
2018-12-07T16:58:03.452Z,8.87
2018-12-07T17:00:31.331Z,6.77
2018-12-07T17:02:59.105Z,10.07
2018-12-07T17:05:26.808Z,11.33
2018-12-07T17:07:54.708Z,8.77
2018-12-07T17:10:22.506Z,12.60
2018-12-07T17:12:50.199Z,12.60
2018-12-07T17:15:18.147Z,10.93
2018-12-07T17:17:46.033Z,14.40
2018-12-07T17:20:13.763Z,7.70
2018-12-07T17:22:41.415Z,11.87
2018-12-07T17:25:09.271Z,11.77
2018-12-07T17:27:37.113Z,12.53
2018-12-07T17:30:05.497Z,14.00
2018-12-07T17:32:33.279Z,10.53
2018-12-07T17:35:01.051Z,6.80
2018-12-07T17:37:28.770Z,10.73
2018-12-07T17:39:56.545Z,14.00
2018-12-07T17:42:29.456Z,11.40
2018-12-07T17:44:54.080Z,11.60
2018-12-07T17:47:21.725Z,12.57
2018-12-07T17:49:49.630Z,9.17
2018-12-07T17:52:17.394Z,11.50
2018-12-07T17:54:45.101Z,8.27
2018-12-07T17:57:12.786Z,13.00
2018-12-07T17:59:40.438Z,14.70
2018-12-07T18:02:08.074Z,11.20
2018-12-07T18:04:35.621Z,17.70
2018-12-07T18:07:03.407Z,14.17
2018-12-07T18:09:31.249Z,10.73
2018-12-07T18:11:59.233Z,16.80
2018-12-07T18:14:27.030Z,14.23
2018-12-07T18:16:54.723Z,7.23
2018-12-07T18:19:22.298Z,9.80
2018-12-07T18:21:49.915Z,12.23
2018-12-07T18:24:17.736Z,13.07
2018-12-07T18:26:45.630Z,11.17
2018-12-07T18:29:13.527Z,14.57
2018-12-07T18:31:41.167Z,12.50
2018-12-07T18:34:09.013Z,9.83
2018-12-07T18:36:37.035Z,12.63
2018-12-07T18:39:07.133Z,16.07
2018-12-07T18:41:34.818Z,11.73
2018-12-07T18:44:02.769Z,19.53
2018-12-07T18:46:30.680Z,11.67
2018-12-07T18:48:58.370Z,12.30
2018-12-07T18:51:27.189Z,20.20
2018-12-07T18:53:54.946Z,15.03
2018-12-07T18:56:22.766Z,17.23
2018-12-07T18:58:50.620Z,9.60
2018-12-07T19:01:18.359Z,11.53
2018-12-07T19:03:46.543Z,13.67
2018-12-07T19:06:14.636Z,8.10
2018-12-07T19:08:42.494Z,15.20
2018-12-07T19:11:10.451Z,11.43
2018-12-07T19:13:38.418Z,12.53
2018-12-07T19:16:06.383Z,12.33
2018-12-07T19:18:34.002Z,20.20
2018-12-07T19:21:02.003Z,12.27
2018-12-07T19:23:29.687Z,14.80
2018-12-07T19:25:57.577Z,11.67
2018-12-07T19:28:25.347Z,11.27
2018-12-07T19:30:53.255Z,8.70
2018-12-07T19:33:21.353Z,9.80
2018-12-07T19:35:49.515Z,9.50
2018-12-07T19:38:17.471Z,16.33
2018-12-07T19:40:45.361Z,11.33
2018-12-07T19:43:13.205Z,10.53
2018-12-07T19:45:40.838Z,8.93
2018-12-07T19:48:08.716Z,14.20
2018-12-07T19:50:36.610Z,11.70
2018-12-07T19:53:08.159Z,15.67
2018-12-07T19:55:36.008Z,19.13
2018-12-07T19:58:04.055Z,12.20
2018-12-07T20:00:31.731Z,13.33
2018-12-07T20:02:59.329Z,11.33
2018-12-07T20:05:27.023Z,13.97
2018-12-07T20:07:55.204Z,11.03
2018-12-07T20:10:23.169Z,6.93
2018-12-07T20:12:50.965Z,11.23
2018-12-07T21:52:47.343Z,22.17
2018-12-07T21:55:15.300Z,15.57
2018-12-07T21:57:42.899Z,10.17
2018-12-07T22:00:10.572Z,10.30
2018-12-07T22:02:38.442Z,7.93
2018-12-07T22:05:06.215Z,11.23
2018-12-07T22:07:34.396Z,13.47
2018-12-07T22:10:02.428Z,10.93
2018-12-07T22:12:30.134Z,9.27
2018-12-07T22:14:57.809Z,8.50
2018-12-07T22:17:25.569Z,14.73
2018-12-07T22:19:53.460Z,7.87
2018-12-07T22:22:21.504Z,13.87
2018-12-07T22:24:49.169Z,9.67
2018-12-07T22:27:17.085Z,8.40
2018-12-07T22:29:44.664Z,8.70
2018-12-07T22:32:23.510Z,8.90
2018-12-07T22:34:51.117Z,11.27
2018-12-07T22:37:19.456Z,7.57
2018-12-07T22:39:47.555Z,15.23
2018-12-07T22:42:15.414Z,7.07
2018-12-07T22:44:43.161Z,11.67
2018-12-07T22:47:21.316Z,10.03
2018-12-07T22:49:49.198Z,12.77
2018-12-07T22:52:17.027Z,8.53
2018-12-07T22:54:44.746Z,7.93
2018-12-07T22:57:12.325Z,10.90
2018-12-07T22:59:39.907Z,11.73
2018-12-07T23:02:07.482Z,5.13
2018-12-07T23:04:35.006Z,8.53
2018-12-07T23:07:02.545Z,7.67
2018-12-07T23:09:30.690Z,11.60
2018-12-07T23:11:58.383Z,8.00
2018-12-07T23:14:26.130Z,7.60
2018-12-07T23:16:53.855Z,9.80
2018-12-07T23:19:21.462Z,9.13
2018-12-07T23:21:49.189Z,12.63
2018-12-07T23:24:16.716Z,10.50
2018-12-07T23:26:44.278Z,8.67
2018-12-07T23:29:20.891Z,9.67
2018-12-07T23:31:48.581Z,11.10
2018-12-07T23:34:16.203Z,11.73
2018-12-07T23:36:43.839Z,8.43
2018-12-07T23:39:11.713Z,7.30
2018-12-07T23:41:39.406Z,7.10
2018-12-07T23:44:07.026Z,8.90
2018-12-07T23:46:34.806Z,7.73
2018-12-07T23:49:02.366Z,14.30
2018-12-07T23:51:30.067Z,12.00
2018-12-07T23:53:57.607Z,8.70
2018-12-07T23:56:25.314Z,12.03
2018-12-07T23:58:52.942Z,7.73
